sensor_id;sensor_type;location;lat;lon;timestamp;P1;durP1;ratioP1;P2;durP2;ratioP2
80199;SDS011;69520;44.900;-0.764;2024-02-21T09:01:29;6.85;;;1.98;;
80199;SDS011;69520;44.900;-0.764;2024-02-21T09:03:55;8.38;;;2.25;;
80199;SDS011;69520;44.900;-0.764;2024-02-21T09:06:21;7.07;;;1.92;;
80199;SDS011;69520;44.900;-0.764;2024-02-21T09:08:48;11.00;;;2.80;;
80199;SDS011;69520;44.900;-0.764;2024-02-21T09:11:14;8.27;;;2.00;;
80199;SDS011;69520;44.900;-0.764;2024-02-21T09:13:41;7.68;;;2.17;;
80199;SDS011;69520;44.900;-0.764;2024-02-21T09:16:07;8.20;;;1.50;;
80199;SDS011;69520;44.900;-0.764;2024-02-21T09:18:34;5.20;;;1.30;;
80199;SDS011;69520;44.900;-0.764;2024-02-21T09:21:00;6.07;;;1.40;;
80199;SDS011;69520;44.900;-0.764;2024-02-21T09:23:26;6.82;;;1.52;;
80199;SDS011;69520;44.900;-0.764;2024-02-21T09:25:52;5.65;;;1.40;;
80199;SDS011;69520;44.900;-0.764;2024-02-21T09:28:20;7.50;;;1.38;;
80199;SDS011;69520;44.900;-0.764;2024-02-21T09:30:46;4.93;;;1.25;;
80199;SDS011;69520;44.900;-0.764;2024-02-21T09:33:12;6.10;;;1.50;;
80199;SDS011;69520;44.900;-0.764;2024-02-21T09:35:38;7.90;;;1.60;;
80199;SDS011;69520;44.900;-0.764;2024-02-21T09:38:04;4.75;;;1.20;;
80199;SDS011;69520;44.900;-0.764;2024-02-21T09:40:30;5.43;;;1.35;;
80199;SDS011;69520;44.900;-0.764;2024-02-21T09:43:05;7.88;;;1.40;;
80199;SDS011;69520;44.900;-0.764;2024-02-21T09:45:32;7.90;;;1.80;;
80199;SDS011;69520;44.900;-0.764;2024-02-21T09:50:24;6.65;;;1.40;;
80199;SDS011;69520;44.900;-0.764;2024-02-21T09:52:52;6.97;;;1.58;;
80199;SDS011;69520;44.900;-0.764;2024-02-21T09:55:19;5.00;;;1.20;;
80199;SDS011;69520;44.900;-0.764;2024-02-21T09:57:45;5.97;;;1.37;;
80199;SDS011;69520;44.900;-0.764;2024-02-21T10:00:11;6.18;;;1.27;;
80199;SDS011;69520;44.900;-0.764;2024-02-21T10:02:38;7.05;;;1.40;;
80199;SDS011;69520;44.900;-0.764;2024-02-21T10:05:04;7.43;;;1.33;;
80199;SDS011;69520;44.900;-0.764;2024-02-21T10:07:33;6.75;;;1.30;;
80199;SDS011;69520;44.900;-0.764;2024-02-21T10:10:03;5.60;;;1.40;;
80199;SDS011;69520;44.900;-0.764;2024-02-21T10:12:29;5.75;;;1.20;;
80199;SDS011;69520;44.900;-0.764;2024-02-21T10:15:07;5.38;;;1.40;;
80199;SDS011;69520;44.900;-0.764;2024-02-21T10:17:33;6.13;;;1.10;;
80199;SDS011;69520;44.900;-0.764;2024-02-21T10:20:11;8.05;;;1.60;;
80199;SDS011;69520;44.900;-0.764;2024-02-21T10:22:39;6.17;;;1.10;;
80199;SDS011;69520;44.900;-0.764;2024-02-21T10:25:12;4.60;;;1.20;;
80199;SDS011;69520;44.900;-0.764;2024-02-21T10:27:38;6.88;;;1.42;;
80199;SDS011;69520;44.900;-0.764;2024-02-21T10:30:06;6.93;;;1.70;;
80199;SDS011;69520;44.900;-0.764;2024-02-21T10:32:33;7.30;;;1.40;;
80199;SDS011;69520;44.900;-0.764;2024-02-21T10:35:04;6.53;;;1.53;;
80199;SDS011;69520;44.900;-0.764;2024-02-21T10:37:31;4.53;;;1.30;;
80199;SDS011;69520;44.900;-0.764;2024-02-21T10:39:57;8.82;;;1.90;;
80199;SDS011;69520;44.900;-0.764;2024-02-21T10:42:23;7.03;;;1.42;;
80199;SDS011;69520;44.900;-0.764;2024-02-21T10:44:55;6.32;;;1.33;;
80199;SDS011;69520;44.900;-0.764;2024-02-21T10:47:25;7.07;;;1.30;;
80199;SDS011;69520;44.900;-0.764;2024-02-21T10:49:57;5.28;;;1.15;;
80199;SDS011;69520;44.900;-0.764;2024-02-21T10:52:30;4.50;;;1.02;;
80199;SDS011;69520;44.900;-0.764;2024-02-21T10:55:04;5.57;;;1.08;;
80199;SDS011;69520;44.900;-0.764;2024-02-21T10:57:36;7.38;;;1.33;;
80199;SDS011;69520;44.900;-0.764;2024-02-21T11:00:03;6.13;;;1.07;;
80199;SDS011;69520;44.900;-0.764;2024-02-21T11:02:33;6.57;;;1.70;;
80199;SDS011;69520;44.900;-0.764;2024-02-21T11:04:59;6.75;;;1.40;;
80199;SDS011;69520;44.900;-0.764;2024-02-21T11:07:28;5.40;;;1.30;;
80199;SDS011;69520;44.900;-0.764;2024-02-21T11:09:55;5.53;;;1.80;;
80199;SDS011;69520;44.900;-0.764;2024-02-21T11:12:21;6.23;;;1.47;;
80199;SDS011;69520;44.900;-0.764;2024-02-21T11:14:47;6.88;;;1.40;;
80199;SDS011;69520;44.900;-0.764;2024-02-21T11:17:16;5.57;;;1.30;;
80199;SDS011;69520;44.900;-0.764;2024-02-21T11:19:43;5.30;;;1.30;;
80199;SDS011;69520;44.900;-0.764;2024-02-21T11:22:16;6.22;;;1.10;;
80199;SDS011;69520;44.900;-0.764;2024-02-21T11:24:43;5.30;;;1.37;;
80199;SDS011;69520;44.900;-0.764;2024-02-21T11:27:12;7.38;;;1.40;;
80199;SDS011;69520;44.900;-0.764;2024-02-21T11:32:24;5.30;;;1.25;;
80199;SDS011;69520;44.900;-0.764;2024-02-21T11:35:01;6.57;;;1.73;;
80199;SDS011;69520;44.900;-0.764;2024-02-21T11:37:34;6.90;;;1.83;;
80199;SDS011;69520;44.900;-0.764;2024-02-21T11:40:02;12.30;;;1.52;;
80199;SDS011;69520;44.900;-0.764;2024-02-21T11:42:28;7.03;;;1.55;;
80199;SDS011;69520;44.900;-0.764;2024-02-21T11:44:55;7.45;;;1.60;;
80199;SDS011;69520;44.900;-0.764;2024-02-21T11:47:22;7.47;;;2.20;;
80199;SDS011;69520;44.900;-0.764;2024-02-21T11:49:48;6.50;;;1.40;;
80199;SDS011;69520;44.900;-0.764;2024-02-21T11:52:18;8.35;;;2.22;;
80199;SDS011;69520;44.900;-0.764;2024-02-21T11:54:45;8.85;;;2.45;;
80199;SDS011;69520;44.900;-0.764;2024-02-21T11:57:11;8.20;;;2.22;;
80199;SDS011;69520;44.900;-0.764;2024-02-21T11:59:39;10.48;;;2.10;;
80199;SDS011;69520;44.900;-0.764;2024-02-21T12:02:05;8.20;;;2.37;;
80199;SDS011;69520;44.900;-0.764;2024-02-21T12:04:32;8.65;;;2.30;;
80199;SDS011;69520;44.900;-0.764;2024-02-21T12:06:58;6.53;;;1.90;;
80199;SDS011;69520;44.900;-0.764;2024-02-21T12:09:25;8.68;;;1.90;;
80199;SDS011;69520;44.900;-0.764;2024-02-21T12:12:02;8.70;;;1.90;;
80199;SDS011;69520;44.900;-0.764;2024-02-21T12:14:28;7.17;;;1.90;;
80199;SDS011;69520;44.900;-0.764;2024-02-21T12:16:55;8.23;;;2.20;;
80199;SDS011;69520;44.900;-0.764;2024-02-21T12:19:21;9.95;;;2.90;;
80199;SDS011;69520;44.900;-0.764;2024-02-21T12:21:48;9.93;;;3.47;;
80199;SDS011;69520;44.900;-0.764;2024-02-21T12:24:21;6.72;;;2.05;;
80199;SDS011;69520;44.900;-0.764;2024-02-21T12:26:47;8.33;;;2.43;;
80199;SDS011;69520;44.900;-0.764;2024-02-21T12:29:13;8.68;;;2.42;;
80199;SDS011;69520;44.900;-0.764;2024-02-21T12:31:39;8.23;;;2.05;;
80199;SDS011;69520;44.900;-0.764;2024-02-21T12:34:05;10.52;;;2.70;;
80199;SDS011;69520;44.900;-0.764;2024-02-21T12:36:31;8.25;;;2.38;;
80199;SDS011;69520;44.900;-0.764;2024-02-21T12:38:58;17.20;;;2.90;;
80199;SDS011;69520;44.900;-0.764;2024-02-21T12:41:25;8.60;;;2.50;;
80199;SDS011;69520;44.900;-0.764;2024-02-21T12:43:52;8.38;;;2.40;;
80199;SDS011;69520;44.900;-0.764;2024-02-21T12:46:18;10.32;;;2.67;;
80199;SDS011;69520;44.900;-0.764;2024-02-21T12:48:44;7.18;;;2.17;;
80199;SDS011;69520;44.900;-0.764;2024-02-21T12:51:10;9.83;;;2.30;;
80199;SDS011;69520;44.900;-0.764;2024-02-21T12:53:36;9.88;;;2.50;;
80199;SDS011;69520;44.900;-0.764;2024-02-21T12:56:02;7.10;;;2.50;;
80199;SDS011;69520;44.900;-0.764;2024-02-21T12:58:30;9.45;;;2.55;;
80199;SDS011;69520;44.900;-0.764;2024-02-21T13:00:56;8.35;;;2.38;;
80199;SDS011;69520;44.900;-0.764;2024-02-21T13:03:22;12.80;;;3.00;;
80199;SDS011;69520;44.900;-0.764;2024-02-21T13:05:48;10.43;;;2.55;;
80199;SDS011;69520;44.900;-0.764;2024-02-21T13:08:14;10.25;;;2.60;;
80199;SDS011;69520;44.900;-0.764;2024-02-21T13:10:40;12.07;;;3.22;;
80199;SDS011;69520;44.900;-0.764;2024-02-21T13:13:06;9.98;;;3.25;;
80199;SDS011;69520;44.900;-0.764;2024-02-21T13:15:32;10.83;;;3.13;;
80199;SDS011;69520;44.900;-0.764;2024-02-21T13:17:59;10.90;;;3.67;;
80199;SDS011;69520;44.900;-0.764;2024-02-21T13:20:25;7.88;;;2.92;;
80199;SDS011;69520;44.900;-0.764;2024-02-21T13:22:53;10.55;;;3.10;;
80199;SDS011;69520;44.900;-0.764;2024-02-21T13:25:19;9.70;;;2.65;;
80199;SDS011;69520;44.900;-0.764;2024-02-21T13:27:46;11.30;;;2.70;;
80199;SDS011;69520;44.900;-0.764;2024-02-21T13:30:12;9.80;;;2.60;;
80199;SDS011;69520;44.900;-0.764;2024-02-21T13:32:40;10.48;;;2.72;;
80199;SDS011;69520;44.900;-0.764;2024-02-21T13:35:07;10.63;;;2.42;;
80199;SDS011;69520;44.900;-0.764;2024-02-21T13:37:33;10.70;;;2.60;;
80199;SDS011;69520;44.900;-0.764;2024-02-21T13:39:59;10.63;;;2.50;;
80199;SDS011;69520;44.900;-0.764;2024-02-21T13:42:25;10.60;;;2.58;;
80199;SDS011;69520;44.900;-0.764;2024-02-21T13:44:53;10.25;;;2.80;;
80199;SDS011;69520;44.900;-0.764;2024-02-21T13:47:19;9.40;;;2.13;;
80199;SDS011;69520;44.900;-0.764;2024-02-21T13:49:46;8.30;;;2.63;;
80199;SDS011;69520;44.900;-0.764;2024-02-21T13:52:12;8.53;;;2.53;;
80199;SDS011;69520;44.900;-0.764;2024-02-21T13:54:39;7.95;;;2.22;;
80199;SDS011;69520;44.900;-0.764;2024-02-21T13:57:05;9.75;;;2.58;;
80199;SDS011;69520;44.900;-0.764;2024-02-21T13:59:31;9.80;;;2.58;;
80199;SDS011;69520;44.900;-0.764;2024-02-21T14:01:58;7.10;;;2.00;;
80199;SDS011;69520;44.900;-0.764;2024-02-21T14:04:24;8.67;;;2.40;;
80199;SDS011;69520;44.900;-0.764;2024-02-21T14:06:50;11.75;;;2.53;;
80199;SDS011;69520;44.900;-0.764;2024-02-21T14:09:18;8.02;;;2.13;;
80199;SDS011;69520;44.900;-0.764;2024-02-21T14:11:44;11.15;;;2.55;;
80199;SDS011;69520;44.900;-0.764;2024-02-21T14:14:10;9.75;;;2.25;;
80199;SDS011;69520;44.900;-0.764;2024-02-21T14:16:36;9.07;;;2.23;;
80199;SDS011;69520;44.900;-0.764;2024-02-21T14:19:02;8.25;;;2.00;;
80199;SDS011;69520;44.900;-0.764;2024-02-21T14:21:28;8.25;;;2.30;;
80199;SDS011;69520;44.900;-0.764;2024-02-21T14:23:54;9.02;;;2.10;;
80199;SDS011;69520;44.900;-0.764;2024-02-21T14:26:21;9.30;;;2.13;;
80199;SDS011;69520;44.900;-0.764;2024-02-21T14:28:48;8.20;;;2.53;;
80199;SDS011;69520;44.900;-0.764;2024-02-21T14:31:14;7.82;;;2.20;;
80199;SDS011;69520;44.900;-0.764;2024-02-21T14:33:40;6.65;;;2.10;;
80199;SDS011;69520;44.900;-0.764;2024-02-21T14:36:06;8.10;;;2.65;;
80199;SDS011;69520;44.900;-0.764;2024-02-21T14:38:32;8.13;;;2.60;;
80199;SDS011;69520;44.900;-0.764;2024-02-21T14:41:00;8.43;;;2.10;;
80199;SDS011;69520;44.900;-0.764;2024-02-21T14:43:27;9.07;;;2.25;;
80199;SDS011;69520;44.900;-0.764;2024-02-21T14:45:53;8.02;;;2.10;;
80199;SDS011;69520;44.900;-0.764;2024-02-21T14:48:20;9.70;;;2.20;;
80199;SDS011;69520;44.900;-0.764;2024-02-21T14:50:46;9.65;;;2.45;;
80199;SDS011;69520;44.900;-0.764;2024-02-21T14:53:12;7.00;;;2.10;;
80199;SDS011;69520;44.900;-0.764;2024-02-21T14:55:38;11.15;;;2.30;;
80199;SDS011;69520;44.900;-0.764;2024-02-21T14:58:06;6.95;;;2.20;;
80199;SDS011;69520;44.900;-0.764;2024-02-21T15:00:33;7.45;;;2.10;;
80199;SDS011;69520;44.900;-0.764;2024-02-21T15:02:59;9.75;;;2.35;;
80199;SDS011;69520;44.900;-0.764;2024-02-21T15:05:25;8.03;;;2.10;;
80199;SDS011;69520;44.900;-0.764;2024-02-21T15:07:51;8.23;;;2.10;;
80199;SDS011;69520;44.900;-0.764;2024-02-21T15:10:18;10.70;;;2.22;;
80199;SDS011;69520;44.900;-0.764;2024-02-21T15:12:44;7.22;;;1.80;;
80199;SDS011;69520;44.900;-0.764;2024-02-21T15:15:11;8.40;;;2.17;;
80199;SDS011;69520;44.900;-0.764;2024-02-21T15:17:37;9.43;;;2.17;;
80199;SDS011;69520;44.900;-0.764;2024-02-21T15:20:03;7.93;;;1.90;;
80199;SDS011;69520;44.900;-0.764;2024-02-21T15:22:32;8.45;;;1.98;;
80199;SDS011;69520;44.900;-0.764;2024-02-21T15:24:58;7.80;;;2.00;;
80199;SDS011;69520;44.900;-0.764;2024-02-21T15:27:25;7.03;;;1.90;;
80199;SDS011;69520;44.900;-0.764;2024-02-21T15:29:52;6.83;;;2.10;;
80199;SDS011;69520;44.900;-0.764;2024-02-21T15:32:19;6.80;;;1.70;;
80199;SDS011;69520;44.900;-0.764;2024-02-21T15:34:45;7.57;;;1.73;;
80199;SDS011;69520;44.900;-0.764;2024-02-21T15:37:11;6.95;;;2.00;;
80199;SDS011;69520;44.900;-0.764;2024-02-21T15:39:40;7.75;;;1.73;;
80199;SDS011;69520;44.900;-0.764;2024-02-21T15:42:07;7.07;;;1.73;;
80199;SDS011;69520;44.900;-0.764;2024-02-21T15:44:33;6.20;;;1.70;;
80199;SDS011;69520;44.900;-0.764;2024-02-21T15:46:59;7.15;;;2.08;;
80199;SDS011;69520;44.900;-0.764;2024-02-21T15:49:25;6.05;;;1.23;;
80199;SDS011;69520;44.900;-0.764;2024-02-21T15:51:52;5.85;;;1.50;;
80199;SDS011;69520;44.900;-0.764;2024-02-21T15:54:19;7.93;;;1.83;;
80199;SDS011;69520;44.900;-0.764;2024-02-21T15:56:45;6.95;;;1.92;;
80199;SDS011;69520;44.900;-0.764;2024-02-21T15:59:12;7.45;;;2.03;;
80199;SDS011;69520;44.900;-0.764;2024-02-21T16:01:38;7.20;;;1.83;;
80199;SDS011;69520;44.900;-0.764;2024-02-21T16:04:04;8.48;;;1.88;;
80199;SDS011;69520;44.900;-0.764;2024-02-21T16:06:31;5.80;;;1.50;;
80199;SDS011;69520;44.900;-0.764;2024-02-21T16:08:57;6.70;;;1.60;;
80199;SDS011;69520;44.900;-0.764;2024-02-21T16:11:23;5.75;;;1.60;;
80199;SDS011;69520;44.900;-0.764;2024-02-21T16:13:49;8.20;;;2.13;;
80199;SDS011;69520;44.900;-0.764;2024-02-21T16:16:16;7.68;;;2.22;;
80199;SDS011;69520;44.900;-0.764;2024-02-21T16:18:43;9.10;;;3.00;;
80199;SDS011;69520;44.900;-0.764;2024-02-21T16:21:10;10.68;;;2.60;;
80199;SDS011;69520;44.900;-0.764;2024-02-21T16:23:38;7.85;;;1.80;;
80199;SDS011;69520;44.900;-0.764;2024-02-21T16:26:04;7.82;;;1.67;;
80199;SDS011;69520;44.900;-0.764;2024-02-21T16:28:30;8.23;;;2.25;;
80199;SDS011;69520;44.900;-0.764;2024-02-21T16:30:56;6.70;;;1.60;;
80199;SDS011;69520;44.900;-0.764;2024-02-21T16:33:23;8.00;;;2.10;;
80199;SDS011;69520;44.900;-0.764;2024-02-21T16:35:52;8.68;;;2.97;;
80199;SDS011;69520;44.900;-0.764;2024-02-21T16:38:19;8.93;;;2.60;;
80199;SDS011;69520;44.900;-0.764;2024-02-21T16:40:45;9.45;;;2.30;;
80199;SDS011;69520;44.900;-0.764;2024-02-21T16:43:12;10.13;;;2.33;;
80199;SDS011;69520;44.900;-0.764;2024-02-21T16:45:38;9.43;;;2.30;;
80199;SDS011;69520;44.900;-0.764;2024-02-21T16:48:04;9.02;;;2.17;;
80199;SDS011;69520;44.900;-0.764;2024-02-21T16:50:30;7.60;;;2.40;;
80199;SDS011;69520;44.900;-0.764;2024-02-21T16:52:57;9.90;;;2.40;;
80199;SDS011;69520;44.900;-0.764;2024-02-21T16:55:23;7.63;;;2.27;;
80199;SDS011;69520;44.900;-0.764;2024-02-21T16:57:50;8.95;;;2.28;;
80199;SDS011;69520;44.900;-0.764;2024-02-21T17:00:16;10.15;;;2.65;;
80199;SDS011;69520;44.900;-0.764;2024-02-21T17:02:43;10.35;;;3.75;;
80199;SDS011;69520;44.900;-0.764;2024-02-21T17:05:09;9.25;;;3.15;;
80199;SDS011;69520;44.900;-0.764;2024-02-21T17:07:35;8.80;;;2.80;;
80199;SDS011;69520;44.900;-0.764;2024-02-21T17:10:01;10.95;;;2.97;;
80199;SDS011;69520;44.900;-0.764;2024-02-21T17:12:30;10.63;;;2.83;;
80199;SDS011;69520;44.900;-0.764;2024-02-21T17:14:56;9.70;;;2.85;;
80199;SDS011;69520;44.900;-0.764;2024-02-21T17:17:22;9.48;;;3.00;;
80199;SDS011;69520;44.900;-0.764;2024-02-21T17:19:48;12.47;;;4.00;;
80199;SDS011;69520;44.900;-0.764;2024-02-21T17:22:14;12.40;;;3.88;;
80199;SDS011;69520;44.900;-0.764;2024-02-21T17:24:40;9.95;;;3.70;;
80199;SDS011;69520;44.900;-0.764;2024-02-21T17:27:07;10.50;;;3.78;;
80199;SDS011;69520;44.900;-0.764;2024-02-21T17:29:33;11.27;;;3.78;;
80199;SDS011;69520;44.900;-0.764;2024-02-21T17:31:59;11.20;;;4.07;;
80199;SDS011;69520;44.900;-0.764;2024-02-21T17:34:27;10.48;;;3.65;;
80199;SDS011;69520;44.900;-0.764;2024-02-21T17:36:53;10.70;;;4.13;;
80199;SDS011;69520;44.900;-0.764;2024-02-21T17:39:19;10.20;;;3.80;;
80199;SDS011;69520;44.900;-0.764;2024-02-21T17:41:45;13.23;;;3.92;;
80199;SDS011;69520;44.900;-0.764;2024-02-21T17:44:11;14.37;;;5.10;;
80199;SDS011;69520;44.900;-0.764;2024-02-21T17:46:41;12.63;;;5.10;;
80199;SDS011;69520;44.900;-0.764;2024-02-21T17:49:10;13.85;;;4.70;;
80199;SDS011;69520;44.900;-0.764;2024-02-21T17:51:36;11.13;;;4.65;;
80199;SDS011;69520;44.900;-0.764;2024-02-21T17:54:03;15.73;;;4.80;;
80199;SDS011;69520;44.900;-0.764;2024-02-21T17:56:29;11.57;;;4.60;;
80199;SDS011;69520;44.900;-0.764;2024-02-21T17:58:55;13.70;;;5.35;;
80199;SDS011;69520;44.900;-0.764;2024-02-21T18:01:21;16.33;;;5.60;;
80199;SDS011;69520;44.900;-0.764;2024-02-21T18:03:48;13.68;;;5.97;;
80199;SDS011;69520;44.900;-0.764;2024-02-21T18:06:14;12.45;;;6.25;;
80199;SDS011;69520;44.900;-0.764;2024-02-21T18:08:40;17.03;;;8.63;;
80199;SDS011;69520;44.900;-0.764;2024-02-21T18:11:06;16.40;;;6.50;;
80199;SDS011;69520;44.900;-0.764;2024-02-21T18:13:32;14.50;;;6.82;;
80199;SDS011;69520;44.900;-0.764;2024-02-21T18:15:58;15.27;;;6.57;;
80199;SDS011;69520;44.900;-0.764;2024-02-21T18:18:27;11.32;;;4.65;;
80199;SDS011;69520;44.900;-0.764;2024-02-21T18:20:54;14.13;;;5.23;;
80199;SDS011;69520;44.900;-0.764;2024-02-21T18:23:20;17.25;;;7.43;;
80199;SDS011;69520;44.900;-0.764;2024-02-21T18:25:46;16.58;;;7.90;;
80199;SDS011;69520;44.900;-0.764;2024-02-21T18:28:12;13.48;;;4.65;;
80199;SDS011;69520;44.900;-0.764;2024-02-21T18:30:39;12.23;;;4.32;;
80199;SDS011;69520;44.900;-0.764;2024-02-21T18:33:05;10.50;;;4.30;;
80199;SDS011;69520;44.900;-0.764;2024-02-21T18:35:31;14.85;;;4.82;;
80199;SDS011;69520;44.900;-0.764;2024-02-21T18:37:58;11.20;;;4.35;;
80199;SDS011;69520;44.900;-0.764;2024-02-21T18:40:24;14.50;;;5.68;;
80199;SDS011;69520;44.900;-0.764;2024-02-21T18:42:51;13.63;;;5.13;;
80199;SDS011;69520;44.900;-0.764;2024-02-21T18:45:17;13.07;;;5.57;;
80199;SDS011;69520;44.900;-0.764;2024-02-21T18:47:43;12.85;;;6.13;;
80199;SDS011;69520;44.900;-0.764;2024-02-21T18:50:09;14.07;;;5.00;;
80199;SDS011;69520;44.900;-0.764;2024-02-21T18:52:35;12.60;;;5.57;;
80199;SDS011;69520;44.900;-0.764;2024-02-21T18:55:01;16.40;;;5.65;;
80199;SDS011;69520;44.900;-0.764;2024-02-21T18:57:28;11.63;;;4.47;;
80199;SDS011;69520;44.900;-0.764;2024-02-21T18:59:56;12.82;;;4.60;;
80199;SDS011;69520;44.900;-0.764;2024-02-21T19:02:22;13.40;;;5.70;;
80199;SDS011;69520;44.900;-0.764;2024-02-21T19:04:48;13.68;;;5.50;;
80199;SDS011;69520;44.900;-0.764;2024-02-21T19:07:14;14.10;;;5.13;;
80199;SDS011;69520;44.900;-0.764;2024-02-21T19:09:41;14.63;;;5.77;;
80199;SDS011;69520;44.900;-0.764;2024-02-21T19:12:07;12.20;;;4.78;;
80199;SDS011;69520;44.900;-0.764;2024-02-21T19:14:33;11.32;;;4.40;;
80199;SDS011;69520;44.900;-0.764;2024-02-21T19:16:59;14.13;;;4.70;;
80199;SDS011;69520;44.900;-0.764;2024-02-21T19:19:26;13.07;;;4.28;;
80199;SDS011;69520;44.900;-0.764;2024-02-21T19:21:52;11.87;;;4.70;;
80199;SDS011;69520;44.900;-0.764;2024-02-21T19:24:20;14.45;;;7.22;;
80199;SDS011;69520;44.900;-0.764;2024-02-21T19:27:06;15.35;;;6.85;;
80199;SDS011;69520;44.900;-0.764;2024-02-21T19:29:32;15.82;;;6.05;;
80199;SDS011;69520;44.900;-0.764;2024-02-21T19:31:58;15.13;;;6.68;;
80199;SDS011;69520;44.900;-0.764;2024-02-21T19:34:24;16.20;;;6.00;;
80199;SDS011;69520;44.900;-0.764;2024-02-21T19:36:52;13.30;;;4.50;;
80199;SDS011;69520;44.900;-0.764;2024-02-21T19:39:18;12.45;;;4.95;;
80199;SDS011;69520;44.900;-0.764;2024-02-21T19:41:45;13.13;;;5.40;;
80199;SDS011;69520;44.900;-0.764;2024-02-21T19:44:11;13.65;;;5.57;;
80199;SDS011;69520;44.900;-0.764;2024-02-21T19:46:37;13.03;;;5.70;;
80199;SDS011;69520;44.900;-0.764;2024-02-21T19:49:03;11.55;;;5.10;;
80199;SDS011;69520;44.900;-0.764;2024-02-21T19:51:29;15.68;;;5.40;;
80199;SDS011;69520;44.900;-0.764;2024-02-21T19:53:55;15.00;;;5.15;;
80199;SDS011;69520;44.900;-0.764;2024-02-21T19:56:21;13.45;;;4.95;;
80199;SDS011;69520;44.900;-0.764;2024-02-21T19:58:47;11.50;;;5.33;;
80199;SDS011;69520;44.900;-0.764;2024-02-21T20:01:15;12.52;;;5.35;;
80199;SDS011;69520;44.900;-0.764;2024-02-21T20:03:42;15.50;;;5.22;;
80199;SDS011;69520;44.900;-0.764;2024-02-21T20:06:09;14.52;;;4.70;;
80199;SDS011;69520;44.900;-0.764;2024-02-21T20:08:35;13.50;;;4.97;;
80199;SDS011;69520;44.900;-0.764;2024-02-21T20:11:01;13.93;;;5.53;;
80199;SDS011;69520;44.900;-0.764;2024-02-21T20:13:30;15.45;;;6.25;;
80199;SDS011;69520;44.900;-0.764;2024-02-21T20:15:56;12.05;;;5.05;;
80199;SDS011;69520;44.900;-0.764;2024-02-21T20:18:22;10.43;;;4.57;;
80199;SDS011;69520;44.900;-0.764;2024-02-21T20:20:48;14.77;;;7.13;;
80199;SDS011;69520;44.900;-0.764;2024-02-21T20:23:14;17.40;;;7.97;;
80199;SDS011;69520;44.900;-0.764;2024-02-21T20:25:41;18.88;;;9.40;;
80199;SDS011;69520;44.900;-0.764;2024-02-21T20:28:07;20.48;;;7.10;;
80199;SDS011;69520;44.900;-0.764;2024-02-21T20:30:35;15.13;;;7.32;;
80199;SDS011;69520;44.900;-0.764;2024-02-21T20:33:01;14.07;;;6.35;;
80199;SDS011;69520;44.900;-0.764;2024-02-21T20:35:27;16.77;;;6.90;;
80199;SDS011;69520;44.900;-0.764;2024-02-21T20:37:54;14.75;;;6.50;;
80199;SDS011;69520;44.900;-0.764;2024-02-21T20:40:21;15.38;;;5.72;;
80199;SDS011;69520;44.900;-0.764;2024-02-21T20:42:48;14.18;;;6.25;;
80199;SDS011;69520;44.900;-0.764;2024-02-21T20:45:14;12.10;;;5.50;;
80199;SDS011;69520;44.900;-0.764;2024-02-21T20:47:41;11.27;;;4.83;;
80199;SDS011;69520;44.900;-0.764;2024-02-21T20:50:07;12.77;;;4.78;;
80199;SDS011;69520;44.900;-0.764;2024-02-21T20:52:33;12.50;;;4.15;;
80199;SDS011;69520;44.900;-0.764;2024-02-21T20:55:00;13.13;;;3.90;;
80199;SDS011;69520;44.900;-0.764;2024-02-21T20:57:30;12.27;;;4.50;;
80199;SDS011;69520;44.900;-0.764;2024-02-21T20:59:56;11.37;;;4.17;;
80199;SDS011;69520;44.900;-0.764;2024-02-21T21:02:22;12.52;;;4.10;;
80199;SDS011;69520;44.900;-0.764;2024-02-21T21:04:48;11.30;;;3.30;;
80199;SDS011;69520;44.900;-0.764;2024-02-21T21:07:14;15.00;;;4.30;;
80199;SDS011;69520;44.900;-0.764;2024-02-21T21:09:40;13.05;;;4.25;;
80199;SDS011;69520;44.900;-0.764;2024-02-21T21:12:07;13.53;;;4.00;;
80199;SDS011;69520;44.900;-0.764;2024-02-21T21:14:33;14.70;;;5.03;;
80199;SDS011;69520;44.900;-0.764;2024-02-21T21:16:59;12.13;;;3.58;;
80199;SDS011;69520;44.900;-0.764;2024-02-21T21:19:28;15.30;;;4.40;;
80199;SDS011;69520;44.900;-0.764;2024-02-21T21:21:54;11.77;;;2.97;;
80199;SDS011;69520;44.900;-0.764;2024-02-21T21:24:25;11.03;;;3.50;;
80199;SDS011;69520;44.900;-0.764;2024-02-21T21:26:51;13.50;;;4.00;;
80199;SDS011;69520;44.900;-0.764;2024-02-21T21:29:18;11.73;;;3.83;;
80199;SDS011;69520;44.900;-0.764;2024-02-21T21:31:44;13.07;;;4.40;;
80199;SDS011;69520;44.900;-0.764;2024-02-21T21:34:10;12.32;;;4.15;;
80199;SDS011;69520;44.900;-0.764;2024-02-21T21:36:37;13.40;;;4.73;;
80199;SDS011;69520;44.900;-0.764;2024-02-21T21:39:03;13.38;;;4.35;;
80199;SDS011;69520;44.900;-0.764;2024-02-21T21:41:32;13.85;;;3.88;;
80199;SDS011;69520;44.900;-0.764;2024-02-21T21:43:59;18.02;;;5.68;;
80199;SDS011;69520;44.900;-0.764;2024-02-21T21:46:25;16.77;;;4.00;;
80199;SDS011;69520;44.900;-0.764;2024-02-21T21:48:51;12.40;;;4.10;;
80199;SDS011;69520;44.900;-0.764;2024-02-21T21:51:18;10.35;;;3.35;;
80199;SDS011;69520;44.900;-0.764;2024-02-21T21:53:45;12.32;;;3.97;;
80199;SDS011;69520;44.900;-0.764;2024-02-21T21:56:11;13.93;;;4.90;;
80199;SDS011;69520;44.900;-0.764;2024-02-21T21:58:37;17.67;;;6.22;;
80199;SDS011;69520;44.900;-0.764;2024-02-21T22:01:03;12.87;;;4.70;;
80199;SDS011;69520;44.900;-0.764;2024-02-21T22:03:29;13.60;;;4.22;;
80199;SDS011;69520;44.900;-0.764;2024-02-21T22:05:55;11.93;;;4.18;;
80199;SDS011;69520;44.900;-0.764;2024-02-21T22:08:21;14.43;;;4.97;;
80199;SDS011;69520;44.900;-0.764;2024-02-21T22:10:47;13.43;;;5.20;;
80199;SDS011;69520;44.900;-0.764;2024-02-21T22:13:14;11.37;;;3.40;;
80199;SDS011;69520;44.900;-0.764;2024-02-21T22:15:40;10.82;;;3.22;;
80199;SDS011;69520;44.900;-0.764;2024-02-21T22:18:06;13.85;;;4.13;;
80199;SDS011;69520;44.900;-0.764;2024-02-21T22:20:33;13.93;;;4.25;;
80199;SDS011;69520;44.900;-0.764;2024-02-21T22:23:01;12.40;;;4.28;;
80199;SDS011;69520;44.900;-0.764;2024-02-21T22:25:27;9.43;;;3.37;;
80199;SDS011;69520;44.900;-0.764;2024-02-21T22:27:53;12.43;;;3.83;;
80199;SDS011;69520;44.900;-0.764;2024-02-21T22:30:19;12.30;;;4.60;;
80199;SDS011;69520;44.900;-0.764;2024-02-21T22:32:45;15.25;;;5.60;;
80199;SDS011;69520;44.900;-0.764;2024-02-21T22:35:11;11.90;;;4.35;;
80199;SDS011;69520;44.900;-0.764;2024-02-21T22:37:37;17.20;;;4.97;;
80199;SDS011;69520;44.900;-0.764;2024-02-21T22:40:04;11.88;;;4.38;;
80199;SDS011;69520;44.900;-0.764;2024-02-21T22:42:30;11.13;;;3.97;;
80199;SDS011;69520;44.900;-0.764;2024-02-21T22:44:56;10.52;;;3.40;;
80199;SDS011;69520;44.900;-0.764;2024-02-21T22:47:22;10.18;;;2.88;;
80199;SDS011;69520;44.900;-0.764;2024-02-21T22:49:48;9.60;;;2.83;;
80199;SDS011;69520;44.900;-0.764;2024-02-21T22:52:14;11.57;;;3.00;;
80199;SDS011;69520;44.900;-0.764;2024-02-21T22:54:42;9.73;;;2.78;;
80199;SDS011;69520;44.900;-0.764;2024-02-21T22:57:08;10.75;;;3.45;;
80199;SDS011;69520;44.900;-0.764;2024-02-21T22:59:34;12.15;;;3.47;;
80199;SDS011;69520;44.900;-0.764;2024-02-21T23:02:00;10.90;;;2.23;;
80199;SDS011;69520;44.900;-0.764;2024-02-21T23:04:26;12.27;;;3.00;;
80199;SDS011;69520;44.900;-0.764;2024-02-21T23:06:52;10.70;;;2.83;;
80199;SDS011;69520;44.900;-0.764;2024-02-21T23:09:19;11.43;;;3.78;;
80199;SDS011;69520;44.900;-0.764;2024-02-21T23:11:45;11.02;;;3.42;;
80199;SDS011;69520;44.900;-0.764;2024-02-21T23:14:11;8.23;;;2.80;;
80199;SDS011;69520;44.900;-0.764;2024-02-21T23:16:37;7.95;;;2.90;;
80199;SDS011;69520;44.900;-0.764;2024-02-21T23:19:03;11.50;;;2.80;;
80199;SDS011;69520;44.900;-0.764;2024-02-21T23:21:29;10.65;;;3.00;;
80199;SDS011;69520;44.900;-0.764;2024-02-21T23:23:55;8.38;;;2.80;;
80199;SDS011;69520;44.900;-0.764;2024-02-21T23:26:28;11.87;;;2.60;;
80199;SDS011;69520;44.900;-0.764;2024-02-21T23:28:59;9.35;;;3.28;;
80199;SDS011;69520;44.900;-0.764;2024-02-21T23:31:25;9.98;;;2.97;;